Time;durP1;ratioP1;P1;durP2;ratioP2;P2;SDS_P1;SDS_P2;PMS_P1;PMS_P2;Temp;Humidity;BMP_temperature;BMP_pressure;BME280_temperature;BME280_humidity;BME280_pressure;Samples;Min_cycle;Max_cycle;Signal;HPM_P1;HPM_P2
2021/12/25 00:01:05;;;;;;;6.95;0.80;;;-0.80;99.90;;;;;;4938242;29;20582;-88
2021/12/25 00:03:35;;;;;;;4.32;0.88;;;-0.90;99.90;;;;;;4938593;29;20063;-88
2021/12/25 00:06:01;;;;;;;3.80;0.75;;;-0.90;99.90;;;;;;4938535;29;20054;-88
2021/12/25 00:08:29;;;;;;;2.88;0.85;;;-0.90;99.90;;;;;;4938933;29;20051;-89
2021/12/25 00:10:59;;;;;;;3.35;0.65;;;-1.00;99.90;;;;;;4938930;29;20051;-89
2021/12/25 00:13:25;;;;;;;4.75;0.57;;;-1.00;99.90;;;;;;4938660;29;20035;-89
2021/12/25 00:15:52;;;;;;;4.65;0.80;;;-1.00;99.90;;;;;;4938461;29;20058;-89
2021/12/25 00:18:18;;;;;;;8.88;1.00;;;-1.10;99.90;;;;;;4938640;29;20039;-88
2021/12/25 00:20:44;;;;;;;1.38;0.40;;;-1.10;99.90;;;;;;4938374;29;20047;-88
2021/12/25 00:23:10;;;;;;;2.00;0.50;;;-1.10;99.90;;;;;;4938697;29;20051;-88
2021/12/25 00:25:42;;;;;;;7.70;1.38;;;-1.20;99.90;;;;;;4938177;29;20046;-88
2021/12/25 00:31:21;;;;;;;2.63;0.60;;;-1.20;99.90;;;;;;4938079;29;20415;-87
2021/12/25 00:33:58;;;;;;;5.70;1.00;;;-1.20;99.90;;;;;;4938563;29;20047;-88
2021/12/25 00:36:24;;;;;;;2.85;0.80;;;-1.20;99.90;;;;;;4938425;29;20047;-88
2021/12/25 00:38:52;;;;;;;6.90;0.70;;;-1.20;99.90;;;;;;4938681;29;20054;-87
2021/12/25 00:41:20;;;;;;;2.05;0.50;;;-1.20;99.90;;;;;;4938068;29;20134;-87
2021/12/25 00:43:47;;;;;;;5.82;0.85;;;-1.30;99.90;;;;;;4941922;29;20039;-87
2021/12/25 00:46:13;;;;;;;4.60;0.90;;;-1.30;99.90;;;;;;4942002;29;20046;-87
2021/12/25 00:48:39;;;;;;;3.85;0.50;;;-1.40;99.90;;;;;;4941840;29;20183;-87
2021/12/25 00:51:05;;;;;;;2.05;0.60;;;-1.40;99.90;;;;;;4942271;29;20050;-88
2021/12/25 00:53:31;;;;;;;4.53;0.90;;;-1.30;99.90;;;;;;4941851;29;20051;-87
2021/12/25 00:55:58;;;;;;;4.38;0.77;;;-1.40;99.90;;;;;;4941799;29;20083;-88
2021/12/25 00:58:23;;;;;;;4.05;2.25;;;-1.40;99.90;;;;;;4941792;29;20047;-87
2021/12/25 01:00:50;;;;;;;2.10;0.70;;;-1.50;99.90;;;;;;4941551;29;20043;-87
2021/12/25 01:03:15;;;;;;;2.78;0.70;;;-1.50;99.90;;;;;;4941673;29;20043;-87
2021/12/25 01:05:41;;;;;;;2.85;0.35;;;-1.50;99.90;;;;;;4941856;29;20062;-87
2021/12/25 01:08:07;;;;;;;2.13;0.40;;;-1.50;99.90;;;;;;4941810;29;20047;-87
2021/12/25 01:10:34;;;;;;;4.57;0.57;;;-1.50;99.90;;;;;;4941567;29;20043;-88
2021/12/25 01:13:10;;;;;;;1.85;0.40;;;-1.50;99.90;;;;;;4941616;29;20047;-88
2021/12/25 01:15:55;;;;;;;10.07;1.00;;;-1.50;99.90;;;;;;4941580;29;20043;-87
2021/12/25 01:21:39;;;;;;;1.83;0.60;;;-1.60;99.90;;;;;;4958639;29;20079;-88
2021/12/25 01:29:38;;;;;;;3.38;0.50;;;-1.70;99.90;;;;;;4941307;29;20506;-88
2021/12/25 01:47:47;;;;;;;1.83;0.40;;;-1.80;99.90;;;;;;4940806;29;20047;-86
2021/12/25 01:50:13;;;;;;;1.58;0.25;;;-1.80;99.90;;;;;;4940949;29;20047;-87
2021/12/25 01:52:39;;;;;;;4.03;1.33;;;-1.90;99.90;;;;;;4940587;28;20047;-90
2021/12/25 01:55:08;;;;;;;2.13;0.50;;;-1.90;99.90;;;;;;4941225;29;20106;-88
2021/12/25 01:57:34;;;;;;;2.60;0.63;;;-1.90;99.90;;;;;;4940815;29;20031;-89
2021/12/25 02:00:10;;;;;;;2.22;0.45;;;-1.90;99.90;;;;;;4941061;29;20110;-87
2021/12/25 02:02:36;;;;;;;1.42;0.40;;;-2.00;99.90;;;;;;4940590;29;20491;-87
2021/12/25 02:05:02;;;;;;;1.83;0.30;;;-2.10;99.90;;;;;;4940520;29;20094;-88
2021/12/25 02:07:28;;;;;;;0.70;0.30;;;-2.10;99.90;;;;;;4940634;29;20050;-88
2021/12/25 02:09:54;;;;;;;1.73;0.40;;;-2.00;99.90;;;;;;4940694;29;20051;-88
2021/12/25 02:12:20;;;;;;;3.10;0.30;;;-2.10;99.90;;;;;;4940457;29;20047;-88
2021/12/25 02:14:47;;;;;;;1.88;0.43;;;-2.10;99.90;;;;;;4940758;29;20043;-88
2021/12/25 02:17:24;;;;;;;0.98;0.40;;;-2.10;99.90;;;;;;4940789;29;20047;-86
2021/12/25 02:20:12;;;;;;;3.17;0.55;;;-2.10;99.90;;;;;;4940381;29;20501;-83
2021/12/25 02:22:38;;;;;;;1.45;0.50;;;-2.20;99.90;;;;;;4940396;29;20442;-84
2021/12/25 02:25:04;;;;;;;0.85;0.38;;;-2.20;99.90;;;;;;4957614;29;20134;-83
2021/12/25 02:27:49;;;;;;;1.23;0.30;;;-2.20;99.90;;;;;;4940319;29;20043;-87
2021/12/25 02:30:15;;;;;;;0.93;0.30;;;-2.20;99.90;;;;;;4940179;29;20054;-84
2021/12/25 02:32:44;;;;;;;3.25;0.80;;;-2.30;99.90;;;;;;4939944;29;20043;-84
2021/12/25 02:35:10;;;;;;;1.30;0.50;;;-2.20;99.90;;;;;;4940229;29;20384;-84
2021/12/25 02:37:36;;;;;;;0.70;0.30;;;-2.30;99.90;;;;;;4940164;29;20047;-83
2021/12/25 02:40:02;;;;;;;2.28;0.32;;;-2.30;99.90;;;;;;4940031;29;20506;-83
2021/12/25 02:42:28;;;;;;;1.45;0.30;;;-2.20;99.90;;;;;;4957122;29;20051;-84
2021/12/25 02:44:54;;;;;;;2.78;0.22;;;-2.30;99.90;;;;;;4939897;29;20403;-83
2021/12/25 02:47:21;;;;;;;2.58;0.55;;;-2.30;99.90;;;;;;4939717;29;20047;-83
2021/12/25 02:49:51;;;;;;;4.38;0.93;;;-2.40;99.90;;;;;;4939984;29;20120;-84
2021/12/25 02:52:18;;;;;;;0.95;0.40;;;-2.40;99.90;;;;;;4939769;29;20051;-83
2021/12/25 02:54:44;;;;;;;2.05;0.25;;;-2.40;99.90;;;;;;4940047;29;20047;-83
2021/12/25 02:57:12;;;;;;;5.93;0.80;;;-2.40;99.90;;;;;;4939600;29;20047;-84
2021/12/25 02:59:38;;;;;;;0.75;0.40;;;-2.40;99.90;;;;;;4939842;29;20043;-84
2021/12/25 03:02:05;;;;;;;3.65;0.20;;;-2.40;99.90;;;;;;4939185;29;20138;-83
2021/12/25 03:04:30;;;;;;;4.15;0.73;;;-2.40;99.90;;;;;;4938708;29;20087;-83
2021/12/25 03:06:56;;;;;;;3.13;0.57;;;-2.50;99.90;;;;;;4939279;29;20079;-83
2021/12/25 03:09:22;;;;;;;2.85;0.45;;;-2.50;99.90;;;;;;4939487;29;20039;-83
2021/12/25 03:11:51;;;;;;;2.97;0.40;;;-2.50;99.90;;;;;;4939707;29;20047;-83
2021/12/25 03:14:32;;;;;;;1.15;0.30;;;-2.50;99.90;;;;;;4939607;29;20091;-84
2021/12/25 03:16:58;;;;;;;1.42;0.45;;;-2.50;99.90;;;;;;4939292;29;20086;-84
2021/12/25 03:19:31;;;;;;;2.75;0.40;;;-2.50;99.90;;;;;;4939171;29;20098;-84
2021/12/25 03:21:57;;;;;;;5.82;0.50;;;-2.50;99.90;;;;;;4939302;29;20058;-84
2021/12/25 03:24:24;;;;;;;2.33;0.52;;;-2.60;99.90;;;;;;4938914;29;20063;-83
2021/12/25 03:26:53;;;;;;;1.85;0.30;;;-2.60;99.90;;;;;;4939168;29;20047;-84
2021/12/25 03:29:18;;;;;;;0.65;0.20;;;-2.60;99.90;;;;;;4939206;29;20050;-83
2021/12/25 03:31:45;;;;;;;1.23;0.22;;;-2.60;99.90;;;;;;4939170;29;20047;-83
2021/12/25 03:34:11;;;;;;;2.45;0.32;;;-2.50;99.90;;;;;;4938985;29;20047;-83
2021/12/25 03:36:37;;;;;;;2.85;0.38;;;-2.60;99.90;;;;;;4939352;29;20051;-83
2021/12/25 03:39:13;;;;;;;1.35;0.20;;;-2.60;99.90;;;;;;4939011;29;20048;-87
2021/12/25 03:41:41;;;;;;;0.40;0.30;;;-2.60;99.90;;;;;;4938832;29;20047;-90
2021/12/25 03:44:07;;;;;;;3.30;0.50;;;-2.60;99.90;;;;;;4951597;23;20063;-86
2021/12/25 03:46:33;;;;;;;1.75;0.40;;;-2.70;99.90;;;;;;4935656;29;20048;-86
2021/12/25 03:49:12;;;;;;;0.50;0.20;;;-2.70;99.90;;;;;;4935576;29;20044;-86
2021/12/25 04:00:00;;;;;;;0.70;0.25;;;-2.70;99.90;;;;;;4935673;29;20391;-86
2021/12/25 04:02:33;;;;;;;1.05;0.40;;;-2.70;99.90;;;;;;4935277;29;20055;-86
2021/12/25 04:05:01;;;;;;;2.90;0.40;;;-2.80;99.90;;;;;;4935576;29;20051;-85
2021/12/25 04:10:02;;;;;;;1.90;0.22;;;-2.80;99.90;;;;;;4936564;29;20506;-85
2021/12/25 04:12:28;;;;;;;1.05;0.47;;;-2.80;99.90;;;;;;4935573;29;20059;-85
2021/12/25 04:14:54;;;;;;;1.35;0.30;;;-2.80;99.90;;;;;;4935214;29;20048;-86
2021/12/25 04:17:19;;;;;;;5.85;0.38;;;-2.80;99.90;;;;;;4934932;29;20044;-86
2021/12/25 04:19:45;;;;;;;0.50;0.17;;;-2.90;99.90;;;;;;4935198;29;20050;-86
2021/12/25 04:22:18;;;;;;;0.25;0.10;;;-2.90;99.90;;;;;;4935074;29;20047;-88
2021/12/25 04:24:47;;;;;;;2.13;0.40;;;-2.90;99.90;;;;;;4935258;29;20384;-86
2021/12/25 04:27:15;;;;;;;1.15;0.22;;;-2.90;99.90;;;;;;4935190;29;20403;-86
2021/12/25 04:47:45;;;;;;;0.63;0.20;;;-3.10;99.90;;;;;;4934944;29;20098;-88
2021/12/25 05:02:06;;;;;;;2.47;0.40;;;-3.20;99.90;;;;;;4934592;29;20056;-88
2021/12/25 05:04:46;;;;;;;0.15;0.10;;;-3.20;99.90;;;;;;4935120;29;20047;-88
2021/12/25 05:07:13;;;;;;;1.83;0.30;;;-3.20;99.90;;;;;;4934698;29;20056;-88
2021/12/25 05:09:39;;;;;;;1.65;0.30;;;-3.20;99.90;;;;;;4934966;29;20146;-87
2021/12/25 05:12:05;;;;;;;0.28;0.13;;;-3.20;99.90;;;;;;4935016;29;20136;-87
2021/12/25 05:14:31;;;;;;;1.15;0.38;;;-3.20;99.90;;;;;;4934964;29;20044;-85
2021/12/25 05:16:56;;;;;;;0.95;0.90;;;-3.20;99.90;;;;;;4936038;29;20040;-85
2021/12/25 05:19:22;;;;;;;4.05;0.52;;;-3.20;99.90;;;;;;4934796;29;20134;-86
2021/12/25 05:21:48;;;;;;;0.22;0.10;;;-3.20;99.90;;;;;;4934683;29;20067;-85
2021/12/25 05:24:14;;;;;;;1.60;0.30;;;-3.30;99.90;;;;;;4934552;29;20476;-85
2021/12/25 05:26:40;;;;;;;3.03;0.60;;;-3.30;99.90;;;;;;4935001;29;20100;-85
2021/12/25 05:29:06;;;;;;;2.17;0.30;;;-3.30;99.90;;;;;;4936502;29;20079;-86
2021/12/25 05:31:35;;;;;;;1.98;0.20;;;-3.20;99.90;;;;;;4938053;29;20051;-85
2021/12/25 05:34:02;;;;;;;0.70;0.10;;;-3.20;99.90;;;;;;4938177;29;20392;-85
2021/12/25 05:36:28;;;;;;;0.70;0.25;;;-3.20;99.90;;;;;;4937900;29;20051;-85
2021/12/25 05:38:57;;;;;;;0.50;0.50;;;-3.20;99.90;;;;;;4938121;29;20484;-85
2021/12/25 05:41:25;;;;;;;0.90;0.30;;;-3.20;99.90;;;;;;4937953;29;20103;-86
2021/12/25 05:43:50;;;;;;;2.17;0.38;;;-3.20;99.90;;;;;;4937518;29;20487;-86
2021/12/25 05:46:16;;;;;;;1.88;0.63;;;-3.30;99.90;;;;;;4937766;29;20058;-85
2021/12/25 05:48:42;;;;;;;0.82;0.25;;;-3.30;99.90;;;;;;4937659;29;20035;-86
2021/12/25 05:51:07;;;;;;;4.38;0.35;;;-3.20;99.90;;;;;;4937684;29;20052;-86
2021/12/25 05:53:34;;;;;;;2.20;0.50;;;-3.20;99.90;;;;;;4937621;29;20059;-85
2021/12/25 05:55:59;;;;;;;1.60;0.75;;;-3.30;99.90;;;;;;4937871;29;20387;-85
2021/12/25 05:58:25;;;;;;;0.68;0.30;;;-3.30;99.90;;;;;;4937653;29;20492;-85
2021/12/25 06:00:52;;;;;;;2.78;0.30;;;-3.30;99.90;;;;;;4937664;29;20058;-85
2021/12/25 06:03:18;;;;;;;3.15;0.40;;;-3.30;99.90;;;;;;4937625;29;20087;-85
2021/12/25 06:05:43;;;;;;;1.50;0.50;;;-3.30;99.90;;;;;;4937764;29;20078;-86
2021/12/25 06:08:09;;;;;;;0.35;0.15;;;-3.30;99.90;;;;;;4937467;29;20055;-85
2021/12/25 06:10:35;;;;;;;1.42;0.43;;;-3.40;99.90;;;;;;4937513;29;20480;-85
2021/12/25 06:13:01;;;;;;;4.80;0.50;;;-3.40;99.90;;;;;;4937413;29;20051;-85
2021/12/25 06:15:28;;;;;;;4.38;0.22;;;-3.40;99.90;;;;;;4937284;29;20055;-85
2021/12/25 06:17:57;;;;;;;1.17;0.20;;;-3.40;99.90;;;;;;4937179;29;20062;-85
2021/12/25 06:20:23;;;;;;;0.20;0.10;;;-3.50;99.90;;;;;;4937352;29;20078;-85
2021/12/25 06:22:49;;;;;;;0.60;0.22;;;-3.40;99.90;;;;;;4937089;29;20487;-85
2021/12/25 06:25:15;;;;;;;1.48;0.32;;;-3.50;99.90;;;;;;4937158;29;20043;-85
2021/12/25 06:27:41;;;;;;;1.65;0.30;;;-3.50;99.90;;;;;;4937366;29;20051;-85
2021/12/25 06:30:08;;;;;;;2.03;0.40;;;-3.50;99.90;;;;;;4937072;29;20510;-85
2021/12/25 06:32:34;;;;;;;0.50;0.30;;;-3.50;99.90;;;;;;4936830;29;20050;-85
2021/12/25 06:34:59;;;;;;;1.98;0.40;;;-3.50;99.90;;;;;;4936878;29;20095;-85
2021/12/25 06:37:26;;;;;;;3.92;0.30;;;-3.50;99.90;;;;;;4937055;29;20052;-85
2021/12/25 06:39:51;;;;;;;2.03;0.68;;;-3.50;99.90;;;;;;4936875;29;20098;-85
2021/12/25 06:42:17;;;;;;;2.60;0.40;;;-3.50;99.90;;;;;;4936798;29;20059;-85
2021/12/25 06:44:50;;;;;;;1.42;0.40;;;-3.50;99.90;;;;;;4936449;29;20484;-85
2021/12/25 06:47:15;;;;;;;2.55;0.40;;;-3.50;99.90;;;;;;4936850;29;20078;-85
2021/12/25 06:49:41;;;;;;;2.00;0.38;;;-3.50;99.90;;;;;;4936487;29;20051;-85
2021/12/25 06:52:07;;;;;;;0.63;0.30;;;-3.50;99.90;;;;;;4936832;29;20090;-85
2021/12/25 06:54:33;;;;;;;0.98;0.20;;;-3.50;99.90;;;;;;4936868;29;20048;-84
2021/12/25 06:56:58;;;;;;;1.40;0.30;;;-3.50;99.90;;;;;;4936420;29;20047;-86
2021/12/25 06:59:24;;;;;;;1.48;0.40;;;-3.50;99.90;;;;;;4936258;29;20055;-85
2021/12/25 07:01:51;;;;;;;2.58;0.40;;;-3.50;99.90;;;;;;4936204;29;20051;-85
2021/12/25 07:04:17;;;;;;;1.55;0.40;;;-3.50;99.90;;;;;;4936522;29;20480;-85
2021/12/25 07:06:43;;;;;;;0.88;0.40;;;-3.60;99.90;;;;;;4936557;29;20059;-85
2021/12/25 07:09:09;;;;;;;2.72;1.17;;;-3.60;99.90;;;;;;4936578;29;20057;-84
2021/12/25 07:11:36;;;;;;;0.90;0.60;;;-3.50;99.90;;;;;;4936436;29;20055;-84
2021/12/25 07:14:04;;;;;;;0.95;0.40;;;-3.60;99.90;;;;;;4936129;29;20056;-84
2021/12/25 07:16:31;;;;;;;1.85;0.57;;;-3.60;99.90;;;;;;4937319;29;20515;-84
2021/12/25 07:18:59;;;;;;;1.20;0.60;;;-3.60;99.90;;;;;;4936266;29;20550;-85
2021/12/25 07:21:25;;;;;;;2.47;0.55;;;-3.60;99.90;;;;;;4936152;29;20110;-85
2021/12/25 07:23:51;;;;;;;3.08;0.40;;;-3.60;99.90;;;;;;4935931;29;20487;-85
2021/12/25 07:26:17;;;;;;;4.47;0.45;;;-3.60;99.90;;;;;;4935987;29;20059;-85
2021/12/25 07:28:44;;;;;;;1.65;0.38;;;-3.60;99.90;;;;;;4936107;29;20182;-85
2021/12/25 07:31:10;;;;;;;3.63;0.50;;;-3.60;99.90;;;;;;4936108;29;20134;-84
2021/12/25 07:33:40;;;;;;;3.75;0.52;;;-3.60;99.90;;;;;;4935685;29;20539;-84
2021/12/25 07:36:08;;;;;;;0.65;0.22;;;-3.60;99.90;;;;;;4936890;29;20059;-84
2021/12/25 07:38:34;;;;;;;0.85;0.40;;;-3.60;99.90;;;;;;4935607;29;20074;-84
2021/12/25 07:41:00;;;;;;;3.70;0.40;;;-3.60;99.90;;;;;;4934927;29;20074;-84
2021/12/25 07:43:25;;;;;;;0.45;0.10;;;-3.60;99.90;;;;;;4934451;29;20487;-84
2021/12/25 07:45:52;;;;;;;1.77;0.40;;;-3.60;99.90;;;;;;4935417;29;20044;-84
2021/12/25 07:48:20;;;;;;;3.67;0.45;;;-3.60;99.90;;;;;;4935413;29;20167;-85
2021/12/25 07:50:47;;;;;;;1.30;0.55;;;-3.60;99.90;;;;;;4934794;29;20050;-84
2021/12/25 07:53:16;;;;;;;0.50;0.20;;;-3.60;99.90;;;;;;4935260;29;20043;-84
2021/12/25 07:55:42;;;;;;;0.77;0.20;;;-3.60;99.90;;;;;;4935341;29;20055;-84
2021/12/25 07:58:09;;;;;;;2.53;0.57;;;-3.60;99.90;;;;;;4935546;29;20055;-84
2021/12/25 08:00:35;;;;;;;0.80;0.40;;;-3.60;99.90;;;;;;4935200;29;20095;-84
2021/12/25 08:03:01;;;;;;;1.23;0.32;;;-3.60;99.90;;;;;;4935597;29;20051;-85
2021/12/25 08:05:27;;;;;;;2.65;0.43;;;-3.60;99.90;;;;;;4935348;29;20047;-84
2021/12/25 08:07:53;;;;;;;1.05;0.40;;;-3.70;99.90;;;;;;4935250;29;20134;-84
2021/12/25 08:10:20;;;;;;;6.55;0.38;;;-3.60;99.90;;;;;;4935346;29;20052;-83
2021/12/25 08:12:50;;;;;;;2.35;0.65;;;-3.70;99.90;;;;;;4935064;29;20099;-83
2021/12/25 08:15:18;;;;;;;1.73;0.40;;;-3.70;99.90;;;;;;4934997;29;20091;-84
2021/12/25 08:17:44;;;;;;;1.60;0.60;;;-3.70;99.90;;;;;;4935283;29;20134;-84
2021/12/25 08:20:11;;;;;;;0.95;0.40;;;-3.60;99.90;;;;;;4935233;29;20440;-85
2021/12/25 08:22:37;;;;;;;5.57;1.23;;;-3.70;99.90;;;;;;4934959;29;20051;-84
2021/12/25 08:25:04;;;;;;;5.57;1.83;;;-3.70;99.90;;;;;;4935254;29;20483;-83
2021/12/25 08:27:31;;;;;;;4.13;1.30;;;-3.70;99.90;;;;;;4935057;29;20055;-84
2021/12/25 08:29:57;;;;;;;1.58;0.73;;;-3.70;99.90;;;;;;4934899;29;20559;-81
2021/12/25 08:32:23;;;;;;;2.75;0.93;;;-3.70;99.90;;;;;;4934848;29;20055;-82
2021/12/25 08:34:49;;;;;;;1.85;0.93;;;-3.70;99.90;;;;;;4934692;29;20052;-83
2021/12/25 08:37:15;;;;;;;2.05;0.60;;;-3.70;99.90;;;;;;4935088;29;20105;-83
2021/12/25 08:39:42;;;;;;;3.45;0.65;;;-3.70;99.90;;;;;;4934687;29;20047;-82
2021/12/25 08:42:09;;;;;;;2.85;0.68;;;-3.60;99.90;;;;;;4934923;29;20134;-83
2021/12/25 08:44:40;;;;;;;1.65;0.60;;;-3.70;99.90;;;;;;4933240;29;20389;-83
2021/12/25 08:47:09;;;;;;;1.65;0.80;;;-3.70;99.90;;;;;;4925913;29;20184;-82
2021/12/25 08:49:36;;;;;;;5.80;1.02;;;-3.60;99.90;;;;;;4915501;29;20408;-81
2021/12/25 08:52:10;;;;;;;3.38;0.70;;;-3.60;99.90;;;;;;4916903;29;20052;-81
2021/12/25 08:54:36;;;;;;;4.78;1.23;;;-3.60;99.90;;;;;;4915635;29;20048;-81
2021/12/25 08:57:02;;;;;;;3.60;0.63;;;-3.60;99.90;;;;;;4915486;29;20067;-82
2021/12/25 08:59:28;;;;;;;2.03;0.90;;;-3.60;99.90;;;;;;4916791;29;20488;-82
2021/12/25 09:01:55;;;;;;;2.47;0.80;;;-3.60;99.90;;;;;;4915346;29;20055;-81
2021/12/25 09:04:21;;;;;;;2.78;1.05;;;-3.50;99.90;;;;;;4918234;29;20176;-82
2021/12/25 09:06:46;;;;;;;4.05;1.10;;;-3.50;99.90;;;;;;4919019;29;20486;-82
2021/12/25 09:09:12;;;;;;;7.05;0.88;;;-3.40;99.90;;;;;;4920191;29;20548;-82
2021/12/25 09:11:39;;;;;;;1.63;0.80;;;-3.40;99.90;;;;;;4918922;29;20063;-82
2021/12/25 09:14:06;;;;;;;1.45;0.50;;;-3.40;99.90;;;;;;4919012;29;20507;-82
2021/12/25 09:16:32;;;;;;;3.40;0.65;;;-3.30;99.90;;;;;;4920102;29;20518;-82
2021/12/25 09:18:58;;;;;;;2.55;0.65;;;-3.30;99.90;;;;;;4920277;29;20094;-82
2021/12/25 09:21:24;;;;;;;2.45;0.65;;;-3.30;99.90;;;;;;4918903;29;20068;-82
2021/12/25 09:23:50;;;;;;;5.20;1.35;;;-3.20;99.90;;;;;;4919070;29;20440;-82
2021/12/25 09:26:17;;;;;;;3.35;0.60;;;-3.10;99.90;;;;;;4918836;29;20050;-82
2021/12/25 09:28:44;;;;;;;2.75;0.80;;;-3.10;99.90;;;;;;4918676;29;20048;-83
2021/12/25 09:31:10;;;;;;;2.17;0.77;;;-3.00;99.90;;;;;;4918672;29;20126;-83
2021/12/25 09:33:35;;;;;;;3.80;0.80;;;-2.90;99.90;;;;;;4918853;29;20139;-83
2021/12/25 09:36:02;;;;;;;4.22;0.80;;;-2.90;99.90;;;;;;4918644;29;20427;-83
2021/12/25 09:38:29;;;;;;;3.47;0.88;;;-2.80;99.90;;;;;;4918429;29;20048;-84
2021/12/25 09:40:59;;;;;;;4.95;0.65;;;-2.70;99.90;;;;;;4918575;29;20127;-83
2021/12/25 09:43:25;;;;;;;4.45;1.20;;;-2.70;99.90;;;;;;4918403;29;20059;-84
2021/12/25 09:45:53;;;;;;;3.88;0.70;;;-2.70;99.90;;;;;;4918588;29;20080;-83
2021/12/25 09:48:19;;;;;;;1.73;0.63;;;-2.60;99.90;;;;;;4918337;29;20460;-84
2021/12/25 09:50:45;;;;;;;4.95;0.77;;;-2.50;99.90;;;;;;4918365;29;20500;-84
2021/12/25 09:53:13;;;;;;;2.65;0.60;;;-2.40;99.90;;;;;;4921745;29;20058;-84
2021/12/25 09:55:39;;;;;;;8.85;0.80;;;-2.40;99.90;;;;;;4926795;29;20059;-84
2021/12/25 09:58:06;;;;;;;3.30;0.95;;;-2.30;99.90;;;;;;4919408;29;20052;-84
2021/12/25 10:00:35;;;;;;;2.60;0.40;;;-2.30;99.90;;;;;;4919266;29;20412;-84
2021/12/25 10:03:01;;;;;;;3.63;0.88;;;-2.20;99.90;;;;;;4923883;29;20048;-85
2021/12/25 10:05:34;;;;;;;2.80;0.85;;;-2.10;99.90;;;;;;4927543;29;20044;-84
2021/12/25 10:08:08;;;;;;;4.18;1.10;;;-2.00;99.90;;;;;;4919361;29;20048;-84
2021/12/25 10:10:43;;;;;;;4.57;1.42;;;-2.00;99.90;;;;;;4919237;29;20056;-84
2021/12/25 10:13:31;;;;;;;6.13;1.60;;;-1.90;99.90;;;;;;4919462;29;20087;-85
2021/12/25 10:16:17;;;;;;;3.78;1.60;;;-1.90;99.90;;;;;;4917845;29;20087;-85
2021/12/25 10:18:43;;;;;;;3.30;0.70;;;-1.80;99.90;;;;;;4918132;29;20063;-84
2021/12/25 10:21:29;;;;;;;1.60;0.63;;;-1.70;99.90;;;;;;4917754;29;20183;-84
2021/12/25 10:24:12;;;;;;;3.70;0.60;;;-1.60;99.90;;;;;;4918024;29;20056;-84
2021/12/25 10:26:41;;;;;;;5.63;1.85;;;-1.60;99.90;;;;;;4917777;29;20048;-85
2021/12/25 10:29:18;;;;;;;4.85;0.68;;;-1.50;99.90;;;;;;4917615;29;20095;-85
2021/12/25 10:31:43;;;;;;;3.13;0.55;;;-1.50;99.90;;;;;;4917775;29;20060;-86
2021/12/25 10:34:18;;;;;;;3.17;0.43;;;-1.40;99.90;;;;;;4917498;29;20053;-85
2021/12/25 10:36:44;;;;;;;4.30;0.70;;;-1.40;99.90;;;;;;4917516;29;20048;-86
2021/12/25 10:39:11;;;;;;;3.65;0.93;;;-1.40;99.90;;;;;;4917624;29;20107;-85
2021/12/25 10:41:43;;;;;;;3.35;0.60;;;-1.40;99.90;;;;;;4925850;29;20087;-86
2021/12/25 10:44:21;;;;;;;5.35;1.08;;;-1.30;99.90;;;;;;4920228;29;20060;-85
2021/12/25 10:47:00;;;;;;;2.80;0.73;;;-1.20;99.90;;;;;;4917362;29;20506;-86
2021/12/25 10:49:30;;;;;;;0.52;0.25;;;-1.20;99.90;;;;;;4917631;29;20036;-86
2021/12/25 10:52:19;;;;;;;3.25;0.70;;;-1.20;99.90;;;;;;4917237;29;20504;-86
2021/12/25 10:54:51;;;;;;;3.17;0.45;;;-1.20;99.90;;;;;;4917480;29;20056;-86
2021/12/25 10:57:37;;;;;;;5.65;1.20;;;-1.10;99.90;;;;;;4917516;29;20079;-86
2021/12/25 11:00:13;;;;;;;4.70;1.17;;;-1.10;99.90;;;;;;4917075;29;20572;-87
2021/12/25 11:02:41;;;;;;;3.97;0.73;;;-1.10;99.90;;;;;;4916787;29;20055;-85
2021/12/25 11:05:21;;;;;;;2.08;0.80;;;-1.10;99.90;;;;;;4915045;29;20055;-85
2021/12/25 11:08:00;;;;;;;1.85;0.80;;;-0.90;99.90;;;;;;4916313;29;20051;-85
2021/12/25 11:10:25;;;;;;;6.03;0.73;;;-0.90;99.90;;;;;;4918305;29;20119;-85
2021/12/25 11:12:51;;;;;;;1.70;0.63;;;-0.90;99.90;;;;;;4917076;29;20080;-85
2021/12/25 11:15:24;;;;;;;6.13;1.30;;;-0.90;99.90;;;;;;4915930;29;20070;-84
2021/12/25 11:17:53;;;;;;;1.48;0.60;;;-0.80;99.90;;;;;;4917062;29;20051;-84
2021/12/25 11:20:35;;;;;;;2.13;0.60;;;-0.60;99.90;;;;;;4917026;29;20119;-86
2021/12/25 11:23:04;;;;;;;4.50;0.50;;;-0.70;99.90;;;;;;4916642;29;20488;-85
2021/12/25 11:25:31;;;;;;;3.65;0.80;;;-0.70;99.90;;;;;;4916161;29;20059;-85
2021/12/25 11:27:58;;;;;;;1.77;1.05;;;-0.70;99.90;;;;;;4916423;29;20127;-86
2021/12/25 11:30:30;;;;;;;1.92;0.30;;;-0.70;99.90;;;;;;4917856;29;20052;-85
2021/12/25 11:32:59;;;;;;;1.25;0.38;;;-0.70;99.90;;;;;;4916762;29;20044;-86
2021/12/25 11:35:25;;;;;;;3.45;0.47;;;-0.80;99.90;;;;;;4916469;29;20153;-85
2021/12/25 11:37:55;;;;;;;4.85;0.70;;;-0.70;99.90;;;;;;4916510;29;20361;-86
2021/12/25 11:40:29;;;;;;;1.42;0.57;;;-0.70;99.90;;;;;;4916348;29;20096;-87
2021/12/25 11:43:14;;;;;;;1.20;0.60;;;-0.70;99.90;;;;;;4916159;29;20437;-86
2021/12/25 11:45:42;;;;;;;3.13;0.68;;;-0.60;99.90;;;;;;4916591;29;20036;-86
2021/12/25 11:48:17;;;;;;;2.22;0.50;;;-0.70;99.90;;;;;;4916169;29;20408;-85
2021/12/25 11:50:47;;;;;;;5.57;1.95;;;-0.70;99.90;;;;;;4916087;29;20044;-86
2021/12/25 11:53:30;;;;;;;1.60;0.52;;;-0.60;99.90;;;;;;4916074;29;20055;-87
2021/12/25 11:58:44;;;;;;;1.77;0.60;;;-0.50;99.90;;;;;;4916354;29;20519;-86
2021/12/25 12:01:16;;;;;;;2.97;0.93;;;-0.50;99.90;;;;;;4916066;29;20056;-86
2021/12/25 12:03:46;;;;;;;2.30;0.60;;;-0.50;99.90;;;;;;4916243;29;20493;-86
2021/12/25 12:06:14;;;;;;;3.25;1.00;;;-0.50;99.90;;;;;;4916517;29;20048;-85
2021/12/25 12:08:55;;;;;;;4.07;1.00;;;-0.60;99.90;;;;;;4915938;29;20056;-86
2021/12/25 12:11:26;;;;;;;2.00;0.75;;;-0.50;99.90;;;;;;4916042;29;20044;-86
2021/12/25 12:14:11;;;;;;;2.03;1.10;;;-0.60;99.90;;;;;;4916159;29;20051;-86
2021/12/25 12:16:50;;;;;;;2.40;1.05;;;-0.50;99.90;;;;;;4915944;29;20051;-86
2021/12/25 12:19:36;;;;;;;4.00;0.90;;;-0.40;99.90;;;;;;4916218;29;20052;-86
2021/12/25 12:22:23;;;;;;;5.13;1.10;;;-0.40;99.90;;;;;;4916217;29;20048;-86
2021/12/25 12:25:29;;;;;;;1.98;0.80;;;-0.40;99.90;;;;;;4915984;29;20220;-86
2021/12/25 12:28:00;;;;;;;4.43;1.95;;;-0.50;99.90;;;;;;4916026;29;20044;-86
2021/12/25 12:30:32;;;;;;;4.97;1.48;;;-0.60;99.90;;;;;;4915901;29;20044;-85
2021/12/25 12:33:02;;;;;;;2.90;1.00;;;-0.60;99.90;;;;;;4915606;29;20134;-86
2021/12/25 12:35:32;;;;;;;3.63;1.30;;;-0.60;99.90;;;;;;4915973;29;20040;-85
2021/12/25 12:38:47;;;;;;;4.88;0.93;;;-0.50;99.90;;;;;;4917936;29;20052;-89
2021/12/25 12:41:49;;;;;;;7.97;1.77;;;-0.50;99.90;;;;;;4919556;29;20055;-85
2021/12/25 12:44:31;;;;;;;2.50;1.13;;;-0.40;99.90;;;;;;4896741;29;20056;-89
2021/12/25 12:47:04;;;;;;;3.08;0.98;;;-0.60;99.90;;;;;;4919522;29;20084;-86
2021/12/25 12:49:45;;;;;;;4.45;0.90;;;-0.60;99.90;;;;;;4919439;29;20048;-85
2021/12/25 12:52:34;;;;;;;4.15;1.10;;;-0.60;99.90;;;;;;4919563;29;20055;-86
2021/12/25 12:55:30;;;;;;;2.70;0.63;;;-0.50;99.90;;;;;;4919645;29;20088;-85
2021/12/25 12:58:17;;;;;;;3.97;0.90;;;-0.60;99.90;;;;;;4919619;29;20044;-85
2021/12/25 13:00:48;;;;;;;2.08;0.75;;;-0.60;99.90;;;;;;4919469;29;20145;-86
2021/12/25 13:03:16;;;;;;;2.20;1.00;;;-0.50;99.90;;;;;;4919359;29;20138;-86
2021/12/25 13:05:47;;;;;;;2.83;0.77;;;-0.60;99.90;;;;;;4920566;29;20068;-86
2021/12/25 13:08:15;;;;;;;4.90;0.85;;;-0.50;99.90;;;;;;4919033;29;20052;-87
2021/12/25 13:10:52;;;;;;;3.70;1.02;;;-0.60;99.90;;;;;;4919032;29;20484;-88
2021/12/25 13:13:30;;;;;;;3.83;1.30;;;-0.50;99.90;;;;;;4919393;29;20040;-87
2021/12/25 13:16:00;;;;;;;3.92;0.98;;;-0.50;99.90;;;;;;4919242;29;20044;-86
2021/12/25 13:18:31;;;;;;;2.90;1.02;;;-0.50;99.90;;;;;;4918909;29;20040;-86
2021/12/25 13:20:58;;;;;;;5.38;1.27;;;-0.50;99.90;;;;;;4919011;29;20511;-86
2021/12/25 13:23:52;;;;;;;5.05;1.30;;;-0.50;99.90;;;;;;4918748;29;20091;-86
2021/12/25 13:26:40;;;;;;;4.65;1.10;;;-0.50;99.90;;;;;;4911618;29;20059;-86
2021/12/25 13:29:12;;;;;;;3.35;1.42;;;-0.40;99.90;;;;;;4919100;29;20044;-86
2021/12/25 13:31:41;;;;;;;4.57;1.30;;;-0.40;99.90;;;;;;4918909;29;20052;-86
2021/12/25 13:34:15;;;;;;;5.85;1.30;;;-0.40;99.90;;;;;;4918673;29;20045;-86
2021/12/25 13:36:44;;;;;;;6.25;1.20;;;-0.50;99.90;;;;;;4918790;29;20437;-86
2021/12/25 13:39:16;;;;;;;2.58;0.95;;;-0.50;99.90;;;;;;4918462;29;20052;-86
2021/12/25 13:41:54;;;;;;;1.95;1.00;;;-0.30;99.90;;;;;;4919915;29;20044;-85
2021/12/25 13:44:27;;;;;;;4.13;1.08;;;-0.40;99.90;;;;;;4918433;29;20119;-85
2021/12/25 13:47:21;;;;;;;1.88;0.90;;;-0.40;99.90;;;;;;4918514;29;20087;-86
2021/12/25 13:49:54;;;;;;;8.20;2.10;;;-0.40;99.90;;;;;;4917837;29;20408;-86
2021/12/25 13:52:20;;;;;;;3.88;1.65;;;-0.50;99.90;;;;;;4918539;29;20095;-86
2021/12/25 13:55:14;;;;;;;3.25;1.27;;;-0.60;99.90;;;;;;4918263;29;20092;-85
2021/12/25 13:57:45;;;;;;;3.78;1.67;;;-0.60;99.90;;;;;;4909529;29;20147;-83
2021/12/25 14:00:13;;;;;;;3.08;1.10;;;-0.60;99.90;;;;;;4918791;29;20056;-83
2021/12/25 14:02:42;;;;;;;5.03;1.45;;;-0.70;99.90;;;;;;4918132;29;20054;-84
2021/12/25 14:05:08;;;;;;;6.93;1.73;;;-0.70;99.90;;;;;;4918153;29;20058;-84
2021/12/25 14:07:36;;;;;;;3.80;1.30;;;-0.70;99.90;;;;;;4919273;29;20136;-85
2021/12/25 14:10:11;;;;;;;4.72;1.27;;;-0.70;99.90;;;;;;4917990;29;20052;-85
2021/12/25 14:12:40;;;;;;;3.33;1.20;;;-0.70;99.90;;;;;;4918038;29;20059;-85